Wan Hai 510 — 9VJJ8 — position and weather

sailwx.info

Track history (hours):
 
Tides and Currents Weather Stations Pressure Air Temp Water Temp Dewpoint Dewpoint Depression Visibility Wind Speed Wind Dir Waves Ship Positions

Wan Hai 510

Last reported at 2018-Apr-22 05:46 UTC. Time now 2018-Apr-26 15:32 UTC.
Position N 01°19' E 103°20'.

Length 269 m; draft 10.9 m.

Type: Ship. MMSI: 565706755.

Date/timePositionNaut miles runAvg speedWind from/ knotsBaromVisibWave heightAir tempDewpointWater temp
2018-Apr-22 05:46N 01°19' E 103°20'518.7
2018-Apr-22 05:30N 01°16' E 103°24'1019.2
2018-Apr-22 04:59N 01°12' E 103°33'919.0
2018-Apr-22 04:31N 01°10' E 103°42'916.5
2018-Apr-22 03:59N 01°11' E 103°50'4 8.3
2018-Apr-22 03:30N 01°15' E 103°51'1 1.1
2018-Apr-22 02:57N 01°16' E 103°51'0 0.0
2018-Apr-22 02:30N 01°16' E 103°51'0 0.0
2018-Apr-22 01:09N 01°16' E 103°51'0 0.1
2018-Apr-22 00:57N 01°16' E 103°51'0 0.0
2018-Apr-22 00:24N 01°16' E 103°51'0 0.0
2018-Apr-22 00:00N 01°16' E 103°51'0 0.0
2018-Apr-21 23:30N 01°16' E 103°51'0 0.0
2018-Apr-21 22:57N 01°16' E 103°51'0 0.0
2018-Apr-21 22:21N 01°16' E 103°51'0 0.0
2018-Apr-21 21:54N 01°16' E 103°51'0 0.0
2018-Apr-21 21:27N 01°16' E 103°51'0 0.0
2018-Apr-21 20:57N 01°16' E 103°51'0 0.0
2018-Apr-21 20:30N 01°16' E 103°51'0 0.0
2018-Apr-21 19:57N 01°16' E 103°51'0 0.0
2018-Apr-21 19:27N 01°16' E 103°51'0 0.0
2018-Apr-21 18:57N 01°16' E 103°51'0 0.0
2018-Apr-21 18:21N 01°16' E 103°51'0 0.0
2018-Apr-21 17:27N 01°16' E 103°51'0 0.0
2018-Apr-21 16:57N 01°16' E 103°51'0 0.0
2018-Apr-21 16:30N 01°16' E 103°51'0 0.0
2018-Apr-21 15:48N 01°16' E 103°51'0 0.0
2018-Apr-21 15:30N 01°16' E 103°51'0 0.0
2018-Apr-21 14:51N 01°16' E 103°51'0 0.0
2018-Apr-21 14:09N 01°16' E 103°51'0 0.0
2018-Apr-21 13:57N 01°16' E 103°51'0 0.0
2018-Apr-21 13:30N 01°16' E 103°51'0 0.0
2018-Apr-21 12:51N 01°16' E 103°51'0 0.0
2018-Apr-21 12:30N 01°16' E 103°51'0 0.0
2018-Apr-21 11:57N 01°16' E 103°51'0 0.0
2018-Apr-21 11:30N 01°16' E 103°51'0 0.0
2018-Apr-21 10:39N 01°16' E 103°51'0 0.0
2018-Apr-21 10:30N 01°16' E 103°51'0 0.4
2018-Apr-21 10:00N 01°16' E 103°51'2 3.0
2018-Apr-21 09:30N 01°15' E 103°52'2 4.9
2018-Apr-21 09:00N 01°14' E 103°54'3 6.3
2018-Apr-21 08:30N 01°15' E 103°57'5 8.2
2018-Apr-21 07:57N 01°16' E 104°02'  
2018-Apr-17 00:38N 23°10' E 117°16'318.8
2018-Apr-17 00:28N 23°12' E 117°19'818.7
2018-Apr-17 00:00N 23°15' E 117°27'1018.8
2018-Apr-16 23:29N 23°20' E 117°37'918.8
2018-Apr-16 23:00N 23°26' E 117°44'1019.0
2018-Apr-16 22:30N 23°31' E 117°53'1019.3
2018-Apr-16 22:00N 23°36' E 118°02'  
2018-Apr-13 18:08N 34°04' E 138°07'1118.5
2018-Apr-13 17:31N 34°09' E 138°19'019.0
2018-Apr-13 17:30N 34°09' E 138°19'2018.1
2018-Apr-13 16:25N 34°19' E 138°40'1418.2
2018-Apr-13 15:39N 34°25' E 138°55'318.0
2018-Apr-13 15:30N 34°26' E 138°58'918.2
2018-Apr-13 15:00N 34°30' E 139°08'917.4
2018-Apr-13 14:30N 34°35' E 139°17'917.6
2018-Apr-13 14:00N 34°38' E 139°26'816.6
2018-Apr-13 13:30N 34°45' E 139°33'1019.2
2018-Apr-13 13:00N 34°53' E 139°38'919.1
2018-Apr-13 12:30N 35°03' E 139°40'917.9
2018-Apr-13 12:00N 35°11' E 139°45'611.8
2018-Apr-13 11:30N 35°16' E 139°45'612.2
2018-Apr-13 11:00N 35°22' E 139°42'611.4
2018-Apr-13 10:30N 35°27' E 139°46'510.2
2018-Apr-13 10:00N 35°30' E 139°51'511.0
2018-Apr-13 09:30N 35°35' E 139°48'2 4.5
2018-Apr-13 09:00N 35°36' E 139°46'0 0.2
2018-Apr-13 08:29N 35°36' E 139°46'0 0.0
2018-Apr-13 07:56N 35°36' E 139°46'0 0.0
2018-Apr-13 07:23N 35°36' E 139°46'0 0.0
2018-Apr-13 06:59N 35°36' E 139°46'0 0.0
2018-Apr-13 06:29N 35°36' E 139°46'0 0.0
2018-Apr-13 05:41N 35°36' E 139°46'0 0.0
2018-Apr-13 05:29N 35°36' E 139°46'0 0.0
2018-Apr-13 04:59N 35°36' E 139°46'0 0.0
2018-Apr-13 04:29N 35°36' E 139°46'0 0.0
2018-Apr-13 03:59N 35°36' E 139°46'0 0.0
2018-Apr-13 03:26N 35°36' E 139°46'0 0.0
2018-Apr-13 02:59N 35°36' E 139°46'0 0.0
2018-Apr-13 02:26N 35°36' E 139°46'0 0.0
2018-Apr-13 01:53N 35°36' E 139°46'0 0.0
2018-Apr-13 01:23N 35°36' E 139°46'0 0.0
2018-Apr-13 00:56N 35°36' E 139°46'0 0.0
2018-Apr-13 00:29N 35°36' E 139°46'0 0.0
2018-Apr-12 23:44N 35°36' E 139°46'0 0.0
2018-Apr-12 23:29N 35°36' E 139°46'0 0.0
2018-Apr-12 22:53N 35°36' E 139°46'0 0.1
2018-Apr-12 22:31N 35°36' E 139°46'1 2.8
2018-Apr-12 22:00N 35°35' E 139°47'5 9.5
2018-Apr-12 21:31N 35°32' E 139°52'4 8.0
2018-Apr-12 21:00N 35°28' E 139°51'4 8.6
2018-Apr-12 20:31N 35°26' E 139°47'5 9.3
2018-Apr-12 20:00N 35°27' E 139°41'0 0.5
2018-Apr-12 19:30N 35°26' E 139°41'0 0.0
2018-Apr-12 18:58N 35°26' E 139°41'0 0.0
2018-Apr-12 18:28N 35°26' E 139°41'0 0.0
2018-Apr-12 17:58N 35°26' E 139°41'0 0.0
2018-Apr-12 17:28N 35°26' E 139°41'0 0.0
2018-Apr-12 16:58N 35°26' E 139°41'0 0.0
2018-Apr-12 16:28N 35°26' E 139°41'0 0.0
2018-Apr-12 15:58N 35°26' E 139°41'0 0.0
2018-Apr-12 15:28N 35°26' E 139°41'0 0.0
2018-Apr-12 14:58N 35°26' E 139°41'0 0.0
2018-Apr-12 14:28N 35°26' E 139°41'0 0.0
2018-Apr-12 13:58N 35°26' E 139°41'0 0.0
2018-Apr-12 13:28N 35°26' E 139°41'0 0.0
2018-Apr-12 12:58N 35°26' E 139°41'0 0.0
2018-Apr-12 12:28N 35°26' E 139°41'0 0.0
2018-Apr-12 11:58N 35°26' E 139°41'0 0.0
2018-Apr-12 11:28N 35°26' E 139°41'0 0.0
2018-Apr-12 10:58N 35°26' E 139°41'0 0.0
2018-Apr-12 10:28N 35°26' E 139°41'0 0.0
2018-Apr-12 09:58N 35°26' E 139°41'0 0.0
2018-Apr-12 09:28N 35°26' E 139°41'0 0.0
2018-Apr-12 08:58N 35°26' E 139°41'0 0.0
2018-Apr-12 08:28N 35°26' E 139°41'0 0.0
2018-Apr-12 07:58N 35°26' E 139°41'0 0.0
2018-Apr-12 07:28N 35°26' E 139°41'0 0.0
2018-Apr-12 06:58N 35°26' E 139°41'0 0.0
2018-Apr-12 06:28N 35°26' E 139°41'0 0.0
2018-Apr-12 05:58N 35°26' E 139°41'  
Track history (hours):
 
Tides and Currents Weather Stations Pressure Air Temp Water Temp Dewpoint Dewpoint Depression Visibility Wind Speed Wind Dir Waves Ship Positions

Wan Hai 510

Last reported at 2018-Apr-22 05:46 UTC. Time now 2018-Apr-26 15:32 UTC.
Position N 01°19' E 103°20'.

Length 269 m; draft 10.9 m.

Type: Ship. MMSI: 565706755.

Date/timePositionNaut miles runAvg speedWind from/ knotsBaromVisibWave heightAir tempDewpointWater temp
2018-Apr-22 05:46N 01°19' E 103°20'518.7
2018-Apr-22 05:30N 01°16' E 103°24'1019.2
2018-Apr-22 04:59N 01°12' E 103°33'919.0
2018-Apr-22 04:31N 01°10' E 103°42'916.5
2018-Apr-22 03:59N 01°11' E 103°50'4 8.3
2018-Apr-22 03:30N 01°15' E 103°51'1 1.1
2018-Apr-22 02:57N 01°16' E 103°51'0 0.0
2018-Apr-22 02:30N 01°16' E 103°51'0 0.0
2018-Apr-22 01:09N 01°16' E 103°51'0 0.1
2018-Apr-22 00:57N 01°16' E 103°51'0 0.0
2018-Apr-22 00:24N 01°16' E 103°51'0 0.0
2018-Apr-22 00:00N 01°16' E 103°51'0 0.0
2018-Apr-21 23:30N 01°16' E 103°51'0 0.0
2018-Apr-21 22:57N 01°16' E 103°51'0 0.0
2018-Apr-21 22:21N 01°16' E 103°51'0 0.0
2018-Apr-21 21:54N 01°16' E 103°51'0 0.0
2018-Apr-21 21:27N 01°16' E 103°51'0 0.0
2018-Apr-21 20:57N 01°16' E 103°51'0 0.0
2018-Apr-21 20:30N 01°16' E 103°51'0 0.0
2018-Apr-21 19:57N 01°16' E 103°51'0 0.0
2018-Apr-21 19:27N 01°16' E 103°51'0 0.0
2018-Apr-21 18:57N 01°16' E 103°51'0 0.0
2018-Apr-21 18:21N 01°16' E 103°51'0 0.0
2018-Apr-21 17:27N 01°16' E 103°51'0 0.0
2018-Apr-21 16:57N 01°16' E 103°51'0 0.0
2018-Apr-21 16:30N 01°16' E 103°51'0 0.0
2018-Apr-21 15:48N 01°16' E 103°51'0 0.0
2018-Apr-21 15:30N 01°16' E 103°51'0 0.0
2018-Apr-21 14:51N 01°16' E 103°51'0 0.0
2018-Apr-21 14:09N 01°16' E 103°51'0 0.0
2018-Apr-21 13:57N 01°16' E 103°51'0 0.0
2018-Apr-21 13:30N 01°16' E 103°51'0 0.0
2018-Apr-21 12:51N 01°16' E 103°51'0 0.0
2018-Apr-21 12:30N 01°16' E 103°51'0 0.0
2018-Apr-21 11:57N 01°16' E 103°51'0 0.0
2018-Apr-21 11:30N 01°16' E 103°51'0 0.0
2018-Apr-21 10:39N 01°16' E 103°51'0 0.0
2018-Apr-21 10:30N 01°16' E 103°51'0 0.4
2018-Apr-21 10:00N 01°16' E 103°51'2 3.0
2018-Apr-21 09:30N 01°15' E 103°52'2 4.9
2018-Apr-21 09:00N 01°14' E 103°54'3 6.3
2018-Apr-21 08:30N 01°15' E 103°57'5 8.2
2018-Apr-21 07:57N 01°16' E 104°02'  
2018-Apr-17 00:38N 23°10' E 117°16'318.8
2018-Apr-17 00:28N 23°12' E 117°19'818.7
2018-Apr-17 00:00N 23°15' E 117°27'1018.8
2018-Apr-16 23:29N 23°20' E 117°37'918.8
2018-Apr-16 23:00N 23°26' E 117°44'1019.0
2018-Apr-16 22:30N 23°31' E 117°53'1019.3
2018-Apr-16 22:00N 23°36' E 118°02'  
2018-Apr-13 18:08N 34°04' E 138°07'1118.5
2018-Apr-13 17:31N 34°09' E 138°19'019.0
2018-Apr-13 17:30N 34°09' E 138°19'2018.1
2018-Apr-13 16:25N 34°19' E 138°40'1418.2
2018-Apr-13 15:39N 34°25' E 138°55'318.0
2018-Apr-13 15:30N 34°26' E 138°58'918.2
2018-Apr-13 15:00N 34°30' E 139°08'917.4
2018-Apr-13 14:30N 34°35' E 139°17'917.6
2018-Apr-13 14:00N 34°38' E 139°26'816.6
2018-Apr-13 13:30N 34°45' E 139°33'1019.2
2018-Apr-13 13:00N 34°53' E 139°38'919.1
2018-Apr-13 12:30N 35°03' E 139°40'917.9
2018-Apr-13 12:00N 35°11' E 139°45'611.8
2018-Apr-13 11:30N 35°16' E 139°45'612.2
2018-Apr-13 11:00N 35°22' E 139°42'611.4
2018-Apr-13 10:30N 35°27' E 139°46'510.2
2018-Apr-13 10:00N 35°30' E 139°51'511.0
2018-Apr-13 09:30N 35°35' E 139°48'2 4.5
2018-Apr-13 09:00N 35°36' E 139°46'0 0.2
2018-Apr-13 08:29N 35°36' E 139°46'0 0.0
2018-Apr-13 07:56N 35°36' E 139°46'0 0.0
2018-Apr-13 07:23N 35°36' E 139°46'0 0.0
2018-Apr-13 06:59N 35°36' E 139°46'0 0.0
2018-Apr-13 06:29N 35°36' E 139°46'0 0.0
2018-Apr-13 05:41N 35°36' E 139°46'0 0.0
2018-Apr-13 05:29N 35°36' E 139°46'0 0.0
2018-Apr-13 04:59N 35°36' E 139°46'0 0.0
2018-Apr-13 04:29N 35°36' E 139°46'0 0.0
2018-Apr-13 03:59N 35°36' E 139°46'0 0.0
2018-Apr-13 03:26N 35°36' E 139°46'0 0.0
2018-Apr-13 02:59N 35°36' E 139°46'0 0.0
2018-Apr-13 02:26N 35°36' E 139°46'0 0.0
2018-Apr-13 01:53N 35°36' E 139°46'0 0.0
2018-Apr-13 01:23N 35°36' E 139°46'0 0.0
2018-Apr-13 00:56N 35°36' E 139°46'0 0.0
2018-Apr-13 00:29N 35°36' E 139°46'0 0.0
2018-Apr-12 23:44N 35°36' E 139°46'0 0.0
2018-Apr-12 23:29N 35°36' E 139°46'0 0.0
2018-Apr-12 22:53N 35°36' E 139°46'0 0.1
2018-Apr-12 22:31N 35°36' E 139°46'1 2.8
2018-Apr-12 22:00N 35°35' E 139°47'5 9.5
2018-Apr-12 21:31N 35°32' E 139°52'4 8.0
2018-Apr-12 21:00N 35°28' E 139°51'4 8.6
2018-Apr-12 20:31N 35°26' E 139°47'5 9.3
2018-Apr-12 20:00N 35°27' E 139°41'0 0.5
2018-Apr-12 19:30N 35°26' E 139°41'0 0.0
2018-Apr-12 18:58N 35°26' E 139°41'0 0.0
2018-Apr-12 18:28N 35°26' E 139°41'0 0.0
2018-Apr-12 17:58N 35°26' E 139°41'0 0.0
2018-Apr-12 17:28N 35°26' E 139°41'0 0.0
2018-Apr-12 16:58N 35°26' E 139°41'0 0.0
2018-Apr-12 16:28N 35°26' E 139°41'0 0.0
2018-Apr-12 15:58N 35°26' E 139°41'0 0.0
2018-Apr-12 15:28N 35°26' E 139°41'0 0.0
2018-Apr-12 14:58N 35°26' E 139°41'0 0.0
2018-Apr-12 14:28N 35°26' E 139°41'0 0.0
2018-Apr-12 13:58N 35°26' E 139°41'0 0.0
2018-Apr-12 13:28N 35°26' E 139°41'0 0.0
2018-Apr-12 12:58N 35°26' E 139°41'0 0.0
2018-Apr-12 12:28N 35°26' E 139°41'0 0.0
2018-Apr-12 11:58N 35°26' E 139°41'0 0.0
2018-Apr-12 11:28N 35°26' E 139°41'0 0.0
2018-Apr-12 10:58N 35°26' E 139°41'0 0.0
2018-Apr-12 10:28N 35°26' E 139°41'0 0.0
2018-Apr-12 09:58N 35°26' E 139°41'0 0.0
2018-Apr-12 09:28N 35°26' E 139°41'0 0.0
2018-Apr-12 08:58N 35°26' E 139°41'0 0.0
2018-Apr-12 08:28N 35°26' E 139°41'0 0.0
2018-Apr-12 07:58N 35°26' E 139°41'0 0.0
2018-Apr-12 07:28N 35°26' E 139°41'0 0.0
2018-Apr-12 06:58N 35°26' E 139°41'0 0.0
2018-Apr-12 06:28N 35°26' E 139°41'0 0.0
2018-Apr-12 05:58N 35°26' E 139°41'  

Dump ship's entire track history